Time;durP1;ratioP1;P1;durP2;ratioP2;P2;SDS_P1;SDS_P2;PMS_P1;PMS_P2;Temp;Humidity;BMP_temperature;BMP_pressure;BME280_temperature;BME280_humidity;BME280_pressure;Samples;Min_cycle;Max_cycle;Signal;HPM_P1;HPM_P2
2021/07/06 00:01:18;;;;;;;2.83;1.77;;;17.00;99.90;;;;;;5036261;28;20036;-79
2021/07/06 00:03:44;;;;;;;4.15;1.40;;;17.10;99.90;;;;;;5034528;28;20041;-80
2021/07/06 00:06:10;;;;;;;1.85;1.50;;;17.10;99.90;;;;;;5034589;28;20040;-81
2021/07/06 00:08:37;;;;;;;3.20;1.60;;;17.10;99.90;;;;;;5034123;28;20048;-80
2021/07/06 00:11:03;;;;;;;5.32;1.70;;;17.10;99.90;;;;;;5027330;28;20025;-81
2021/07/06 00:13:29;;;;;;;3.15;1.98;;;17.00;99.90;;;;;;5035052;28;20033;-79
2021/07/06 00:15:56;;;;;;;3.45;1.58;;;17.00;99.90;;;;;;5034490;28;20033;-81
2021/07/06 00:18:22;;;;;;;2.83;1.50;;;16.90;99.90;;;;;;5025360;28;20033;-81
2021/07/06 00:20:48;;;;;;;2.90;1.40;;;16.90;99.90;;;;;;5030044;28;20364;-80
2021/07/06 00:23:14;;;;;;;6.40;1.90;;;16.80;99.90;;;;;;5026481;28;20042;-81
2021/07/06 00:25:41;;;;;;;3.70;1.38;;;16.90;99.90;;;;;;5028484;28;20435;-80
2021/07/06 00:28:07;;;;;;;3.75;1.58;;;16.90;99.90;;;;;;5025160;28;20471;-80
2021/07/06 00:30:33;;;;;;;4.35;1.60;;;16.80;99.90;;;;;;5016937;28;20038;-80
2021/07/06 00:33:00;;;;;;;8.45;2.25;;;16.80;99.90;;;;;;5023179;28;20050;-80
2021/07/06 00:35:26;;;;;;;3.67;1.58;;;16.90;99.90;;;;;;5037620;28;20033;-80
2021/07/06 00:37:52;;;;;;;4.65;1.83;;;16.80;99.90;;;;;;5027149;28;20048;-79
2021/07/06 00:40:18;;;;;;;5.32;1.58;;;16.90;99.90;;;;;;5016722;28;20030;-81
2021/07/06 00:42:46;;;;;;;3.95;1.40;;;16.80;99.90;;;;;;5018196;28;20033;-81
2021/07/06 00:45:15;;;;;;;3.03;2.00;;;16.80;99.90;;;;;;5034896;28;20033;-82
2021/07/06 00:47:43;;;;;;;3.33;1.42;;;16.90;99.90;;;;;;5020940;28;20049;-81
2021/07/06 00:50:17;;;;;;;6.38;3.13;;;16.80;99.90;;;;;;5020915;28;20355;-81
2021/07/06 00:52:43;;;;;;;5.60;3.47;;;16.80;99.90;;;;;;5013264;28;20053;-81
2021/07/06 00:55:09;;;;;;;7.82;2.95;;;16.80;99.90;;;;;;5024610;28;20056;-81
2021/07/06 00:57:37;;;;;;;5.32;3.50;;;16.70;99.90;;;;;;5033403;28;20049;-80
2021/07/06 01:00:13;;;;;;;4.72;2.60;;;16.70;99.90;;;;;;5035182;28;20410;-80
2021/07/06 01:02:39;;;;;;;5.75;1.85;;;16.70;99.90;;;;;;5030998;28;20028;-81
2021/07/06 01:05:11;;;;;;;6.20;2.65;;;16.60;99.90;;;;;;5034314;28;20026;-82
2021/07/06 01:07:37;;;;;;;4.25;2.03;;;16.50;99.90;;;;;;5030777;28;20050;-80
2021/07/06 01:10:05;;;;;;;4.50;2.10;;;16.50;99.90;;;;;;5037123;28;20020;-80
2021/07/06 01:12:32;;;;;;;2.75;1.92;;;16.50;99.90;;;;;;5036197;28;20045;-79
2021/07/06 01:15:00;;;;;;;3.65;2.03;;;16.40;99.90;;;;;;5046442;28;20374;-80
2021/07/06 01:17:27;;;;;;;6.65;2.08;;;16.40;99.90;;;;;;5028371;28;20034;-81
2021/07/06 01:19:59;;;;;;;2.60;1.73;;;16.30;99.90;;;;;;5025475;28;20049;-80
2021/07/06 01:22:30;;;;;;;4.32;2.08;;;16.30;99.90;;;;;;5041685;28;20042;-81
2021/07/06 01:24:57;;;;;;;4.00;1.90;;;16.30;99.90;;;;;;5029214;28;20068;-82
2021/07/06 01:27:25;;;;;;;7.32;2.00;;;16.30;99.90;;;;;;5007764;28;20038;-81
2021/07/06 01:29:53;;;;;;;4.35;1.83;;;16.30;99.90;;;;;;5020720;28;20034;-81
2021/07/06 01:32:19;;;;;;;2.78;1.77;;;16.30;99.90;;;;;;5019007;28;20033;-81
2021/07/06 01:34:46;;;;;;;4.97;2.28;;;16.20;99.90;;;;;;5034871;28;20049;-82
2021/07/06 01:37:19;;;;;;;2.65;1.80;;;16.20;99.90;;;;;;5030101;28;20033;-81
2021/07/06 01:39:47;;;;;;;2.33;1.50;;;16.20;99.90;;;;;;5000780;28;20042;-81
2021/07/06 01:42:21;;;;;;;2.72;1.75;;;16.20;99.90;;;;;;5032832;28;20037;-82
2021/07/06 01:45:02;;;;;;;3.72;2.33;;;16.10;99.90;;;;;;5016221;28;20045;-81
2021/07/06 01:47:28;;;;;;;4.20;2.28;;;16.00;99.90;;;;;;5035225;28;20038;-82
2021/07/06 01:49:54;;;;;;;4.32;2.03;;;15.90;99.90;;;;;;5023659;28;20029;-81
2021/07/06 01:52:20;;;;;;;3.13;2.47;;;15.90;99.90;;;;;;5034244;28;20029;-82
2021/07/06 01:54:47;;;;;;;3.25;2.00;;;15.80;99.90;;;;;;5032958;28;20482;-82
2021/07/06 01:57:16;;;;;;;3.50;2.40;;;15.80;99.90;;;;;;5033497;28;20387;-82
2021/07/06 01:59:42;;;;;;;4.50;2.17;;;15.80;99.90;;;;;;5030017;28;20505;-83
2021/07/06 02:02:08;;;;;;;3.80;2.58;;;15.80;99.90;;;;;;5016099;28;20451;-82
2021/07/06 02:04:35;;;;;;;5.32;2.40;;;15.70;99.90;;;;;;4996940;28;20038;-81
2021/07/06 02:07:01;;;;;;;4.25;2.20;;;15.70;99.90;;;;;;5015766;28;20033;-82
2021/07/06 02:09:27;;;;;;;5.40;2.80;;;15.70;99.90;;;;;;5031693;28;20029;-80
2021/07/06 02:11:53;;;;;;;4.93;2.30;;;15.70;99.90;;;;;;5022570;28;20379;-80
2021/07/06 02:14:20;;;;;;;5.22;2.55;;;15.60;99.90;;;;;;5025958;28;20057;-81
2021/07/06 02:16:46;;;;;;;4.88;2.67;;;15.60;99.90;;;;;;5024647;28;20041;-81
2021/07/06 02:19:12;;;;;;;6.25;2.50;;;15.60;99.90;;;;;;4995552;28;20042;-81
2021/07/06 02:21:38;;;;;;;5.55;2.88;;;15.60;99.90;;;;;;5026546;28;20383;-80
2021/07/06 02:24:06;;;;;;;4.13;3.30;;;15.60;99.90;;;;;;5027516;28;20038;-82
2021/07/06 02:26:32;;;;;;;5.13;2.83;;;15.70;99.90;;;;;;5010348;28;20034;-79
2021/07/06 02:28:58;;;;;;;3.00;2.13;;;15.90;99.90;;;;;;5013596;28;20049;-81
2021/07/06 02:31:24;;;;;;;5.25;2.42;;;16.00;99.90;;;;;;5030651;28;20394;-82
2021/07/06 02:33:50;;;;;;;5.47;2.70;;;16.00;99.90;;;;;;4996431;28;20034;-80
2021/07/06 02:36:17;;;;;;;5.22;2.53;;;16.10;99.90;;;;;;5015023;28;20034;-81
2021/07/06 02:38:43;;;;;;;3.30;2.13;;;16.00;99.90;;;;;;5027573;28;20037;-80
2021/07/06 02:41:10;;;;;;;3.30;1.90;;;16.10;99.90;;;;;;5016235;28;20502;-80
2021/07/06 02:43:38;;;;;;;4.60;2.63;;;16.00;99.90;;;;;;5040406;28;20025;-80
2021/07/06 02:46:05;;;;;;;3.00;2.20;;;16.00;99.90;;;;;;4997610;28;20033;-81
2021/07/06 02:48:31;;;;;;;2.90;2.08;;;16.00;99.90;;;;;;5034311;28;20060;-81
2021/07/06 02:50:58;;;;;;;4.00;2.20;;;16.00;99.90;;;;;;5033731;28;20034;-81
2021/07/06 02:53:24;;;;;;;5.13;1.98;;;16.10;99.90;;;;;;5025912;28;20041;-81
2021/07/06 02:55:50;;;;;;;3.70;2.17;;;16.10;99.90;;;;;;5014483;28;20045;-81
2021/07/06 02:58:16;;;;;;;4.00;2.17;;;16.10;99.90;;;;;;5014038;28;20030;-80
2021/07/06 03:00:42;;;;;;;3.55;2.10;;;16.20;99.90;;;;;;5026347;28;20422;-80
2021/07/06 03:03:10;;;;;;;2.65;1.70;;;16.20;99.90;;;;;;5016076;28;20026;-80
2021/07/06 03:05:37;;;;;;;4.28;1.88;;;16.30;99.90;;;;;;4995942;28;20034;-80
2021/07/06 03:08:04;;;;;;;5.32;2.10;;;16.20;99.90;;;;;;5013729;28;20037;-81
2021/07/06 03:10:37;;;;;;;3.63;1.80;;;16.30;99.90;;;;;;5025850;28;20034;-81
2021/07/06 03:13:06;;;;;;;3.90;2.03;;;16.40;99.90;;;;;;5026203;28;20030;-81
2021/07/06 03:15:32;;;;;;;5.18;1.40;;;16.30;99.90;;;;;;5025258;28;20025;-80
2021/07/06 03:18:01;;;;;;;2.83;1.80;;;16.30;99.90;;;;;;5027350;28;20038;-81
2021/07/06 03:20:28;;;;;;;3.15;2.05;;;16.20;99.90;;;;;;5017464;28;20038;-82
2021/07/06 03:22:55;;;;;;;3.75;1.48;;;16.20;99.90;;;;;;4999225;28;20042;-81
2021/07/06 03:25:25;;;;;;;3.22;1.95;;;16.20;99.90;;;;;;5027080;28;20042;-81
2021/07/06 03:27:53;;;;;;;3.20;1.67;;;16.10;99.90;;;;;;5015369;28;20065;-81
2021/07/06 03:30:25;;;;;;;2.42;1.73;;;16.10;99.90;;;;;;5035628;28;20475;-81
2021/07/06 03:32:53;;;;;;;3.50;1.65;;;16.10;99.90;;;;;;5017251;28;20030;-80
2021/07/06 03:35:20;;;;;;;4.80;1.80;;;16.20;99.90;;;;;;5027404;28;20045;-81
2021/07/06 03:37:47;;;;;;;4.70;1.58;;;16.20;99.90;;;;;;5028235;28;20028;-81
2021/07/06 03:40:14;;;;;;;3.63;1.70;;;16.20;99.90;;;;;;5028898;28;20042;-80
2021/07/06 03:42:43;;;;;;;2.25;1.35;;;16.20;99.90;;;;;;5028717;28;20474;-79
2021/07/06 03:45:13;;;;;;;3.00;1.42;;;16.10;99.90;;;;;;5016902;28;20041;-81
2021/07/06 03:47:39;;;;;;;2.70;1.65;;;16.10;99.90;;;;;;5035063;28;20037;-80
2021/07/06 03:50:11;;;;;;;3.50;1.92;;;16.10;99.90;;;;;;5016044;28;20053;-81
2021/07/06 03:52:37;;;;;;;3.58;1.85;;;16.10;99.90;;;;;;5016256;28;20037;-81
2021/07/06 03:55:05;;;;;;;7.22;2.25;;;16.10;99.90;;;;;;5029467;28;20052;-81
2021/07/06 03:57:32;;;;;;;3.17;1.90;;;16.10;99.90;;;;;;5035868;28;20029;-78
2021/07/06 04:00:03;;;;;;;2.55;1.80;;;15.90;99.90;;;;;;5018830;28;20044;-79
2021/07/06 04:02:35;;;;;;;3.90;2.13;;;15.90;99.90;;;;;;5040715;28;20053;-79
2021/07/06 04:05:06;;;;;;;2.67;2.17;;;15.90;99.90;;;;;;5032927;28;20060;-81
2021/07/06 04:07:32;;;;;;;4.30;2.38;;;15.90;99.90;;;;;;5033326;28;20049;-82
2021/07/06 04:09:59;;;;;;;5.28;3.10;;;16.00;99.90;;;;;;5021359;28;20481;-82
2021/07/06 04:12:25;;;;;;;4.05;2.28;;;16.00;99.90;;;;;;5007858;28;20041;-82
2021/07/06 04:14:52;;;;;;;5.72;2.63;;;16.00;99.90;;;;;;5013668;28;20029;-83
2021/07/06 04:17:18;;;;;;;3.55;2.08;;;16.00;99.90;;;;;;5018656;28;20034;-84
2021/07/06 04:19:45;;;;;;;6.70;2.83;;;16.00;99.90;;;;;;5035202;28;20044;-84
2021/07/06 04:22:12;;;;;;;8.90;2.75;;;16.10;99.90;;;;;;5018071;28;20049;-82
2021/07/06 04:24:38;;;;;;;7.18;2.38;;;16.20;99.90;;;;;;5015547;28;20037;-84
2021/07/06 04:27:04;;;;;;;4.55;1.60;;;16.20;99.90;;;;;;5016790;28;20037;-83
2021/07/06 04:29:30;;;;;;;4.38;1.80;;;16.40;99.90;;;;;;4998186;28;20050;-82
2021/07/06 04:31:57;;;;;;;2.92;1.52;;;16.70;99.90;;;;;;4998892;28;20038;-87
2021/07/06 04:34:24;;;;;;;3.35;1.77;;;16.70;99.90;;;;;;5033469;28;20375;-84
2021/07/06 04:36:50;;;;;;;3.35;1.50;;;17.00;99.90;;;;;;5037139;28;20051;-86
2021/07/06 04:39:17;;;;;;;2.15;1.23;;;17.70;99.90;;;;;;5034808;28;20034;-86
2021/07/06 04:41:45;;;;;;;4.40;1.55;;;18.60;99.90;;;;;;5016384;28;20478;-86
2021/07/06 04:44:12;;;;;;;2.95;2.05;;;19.30;99.90;;;;;;5020729;28;20036;-86
2021/07/06 04:46:39;;;;;;;3.45;1.42;;;19.90;99.90;;;;;;5034386;28;20120;-86
2021/07/06 04:49:06;;;;;;;6.50;2.08;;;20.10;99.90;;;;;;5034989;28;20048;-87
2021/07/06 04:51:33;;;;;;;4.95;1.63;;;20.30;99.90;;;;;;5016778;28;20379;-87
2021/07/06 04:54:00;;;;;;;3.00;1.15;;;20.80;99.90;;;;;;5033866;28;20033;-87
2021/07/06 04:56:28;;;;;;;4.13;1.45;;;21.30;99.90;;;;;;4959171;28;1109007;-87
2021/07/06 04:58:55;;;;;;;5.55;1.48;;;21.50;99.90;;;;;;5014119;28;20045;-86
2021/07/06 05:01:22;;;;;;;2.00;1.23;;;22.40;99.90;;;;;;5016566;28;20034;-87
2021/07/06 05:03:49;;;;;;;4.43;1.05;;;23.30;98.40;;;;;;5030199;28;20034;-87
2021/07/06 05:06:17;;;;;;;3.67;1.08;;;24.10;96.60;;;;;;5016858;28;20034;-88
2021/07/06 05:08:44;;;;;;;3.60;1.30;;;25.20;95.10;;;;;;5032699;28;20038;-87
2021/07/06 05:11:10;;;;;;;2.92;0.85;;;26.50;91.30;;;;;;5034367;28;20029;-87
2021/07/06 05:13:37;;;;;;;2.95;1.05;;;27.10;88.30;;;;;;5013643;28;20053;-82
2021/07/06 05:16:03;;;;;;;3.38;0.95;;;25.90;86.50;;;;;;5026554;28;20040;-88
2021/07/06 05:18:30;;;;;;;3.08;1.33;;;23.80;90.30;;;;;;5034971;28;20038;-88
2021/07/06 05:20:56;;;;;;;2.90;1.52;;;22.70;92.60;;;;;;5024403;28;20049;-87
2021/07/06 05:23:22;;;;;;;5.82;1.33;;;22.10;94.00;;;;;;5028260;28;20034;-87
2021/07/06 05:25:48;;;;;;;5.40;1.40;;;21.90;94.90;;;;;;5041358;28;20064;-86
2021/07/06 05:28:15;;;;;;;1.50;0.85;;;22.40;93.90;;;;;;5036336;28;20029;-88
2021/07/06 05:30:41;;;;;;;2.80;1.27;;;22.10;94.20;;;;;;5023005;28;20029;-81
2021/07/06 05:33:07;;;;;;;2.90;1.15;;;22.30;93.90;;;;;;5038709;28;20028;-87
2021/07/06 05:35:34;;;;;;;4.30;1.42;;;22.60;93.80;;;;;;5038544;28;20052;-88
2021/07/06 05:38:02;;;;;;;7.13;1.50;;;23.20;92.60;;;;;;5023639;28;20030;-89
2021/07/06 05:40:28;;;;;;;2.88;1.55;;;24.30;92.40;;;;;;5017165;28;20069;-88
2021/07/06 05:42:55;;;;;;;2.50;1.00;;;24.90;90.30;;;;;;5023517;28;20045;-87
2021/07/06 05:45:21;;;;;;;2.53;1.25;;;23.60;90.50;;;;;;5037359;28;20482;-89
2021/07/06 05:47:47;;;;;;;3.97;1.17;;;22.70;91.70;;;;;;5040355;28;20032;-85
2021/07/06 05:50:15;;;;;;;3.75;1.63;;;22.10;93.10;;;;;;5023060;28;20029;-90
2021/07/06 05:52:42;;;;;;;3.53;1.20;;;21.90;93.90;;;;;;5025587;28;20034;-92
2021/07/06 05:55:09;;;;;;;5.53;1.05;;;21.90;94.60;;;;;;5018054;28;20054;-92
2021/07/06 05:57:39;;;;;;;2.92;1.20;;;21.90;94.90;;;;;;5018551;28;20345;-91
2021/07/06 06:00:10;;;;;;;3.35;1.20;;;22.10;94.70;;;;;;5035718;28;20040;-87
2021/07/06 06:02:37;;;;;;;3.60;1.38;;;21.80;94.70;;;;;;5020206;28;20042;-87
2021/07/06 06:05:05;;;;;;;3.35;1.15;;;21.50;95.80;;;;;;5015159;28;20053;-87
2021/07/06 06:07:40;;;;;;;2.20;0.88;;;21.50;96.30;;;;;;4989037;28;20046;-86
2021/07/06 06:10:08;;;;;;;1.90;1.10;;;21.30;95.60;;;;;;5030741;28;20041;-86
2021/07/06 06:12:35;;;;;;;1.58;1.00;;;21.10;95.80;;;;;;5034587;28;20029;-86
2021/07/06 06:15:03;;;;;;;2.47;0.90;;;21.00;95.50;;;;;;5030016;28;20042;-86
2021/07/06 06:17:29;;;;;;;2.55;0.93;;;21.00;95.40;;;;;;5016886;28;20482;-87
2021/07/06 06:19:55;;;;;;;3.35;1.10;;;21.10;95.20;;;;;;5025223;28;20379;-79
2021/07/06 06:22:22;;;;;;;2.00;0.90;;;21.00;95.80;;;;;;5024569;28;20093;-78
2021/07/06 06:24:49;;;;;;;3.78;1.23;;;20.90;95.40;;;;;;5014786;28;20049;-78
2021/07/06 06:27:15;;;;;;;3.00;0.85;;;20.90;95.50;;;;;;5031773;28;20026;-79
2021/07/06 06:29:42;;;;;;;1.95;0.90;;;20.90;95.70;;;;;;5031827;28;20026;-78
2021/07/06 06:32:08;;;;;;;1.75;1.05;;;21.00;94.90;;;;;;5032363;28;20033;-79
2021/07/06 06:34:35;;;;;;;1.63;0.85;;;21.20;94.90;;;;;;5032116;28;20035;-80
2021/07/06 06:37:01;;;;;;;1.90;0.80;;;21.40;94.70;;;;;;5031702;28;20037;-77
2021/07/06 06:39:27;;;;;;;1.30;0.73;;;21.40;94.20;;;;;;5015746;28;20034;-78
2021/07/06 06:41:53;;;;;;;4.13;1.00;;;21.40;94.40;;;;;;5023696;28;20478;-78
2021/07/06 06:44:20;;;;;;;1.98;0.85;;;21.50;94.20;;;;;;5025613;28;20423;-77
2021/07/06 06:46:46;;;;;;;5.80;1.13;;;23.10;92.00;;;;;;5016016;28;20030;-78
2021/07/06 06:49:13;;;;;;;2.05;1.10;;;24.60;90.50;;;;;;5026111;28;20368;-79
2021/07/06 06:51:39;;;;;;;2.03;0.80;;;24.60;88.60;;;;;;5035518;28;20029;-77
2021/07/06 06:54:06;;;;;;;3.85;0.80;;;24.10;89.80;;;;;;5021016;28;20045;-79
2021/07/06 06:56:32;;;;;;;3.70;1.10;;;23.40;90.40;;;;;;5017000;28;20490;-79
2021/07/06 06:58:58;;;;;;;4.40;0.95;;;22.70;91.20;;;;;;5033630;28;20029;-78
2021/07/06 07:01:24;;;;;;;2.20;1.25;;;22.10;92.10;;;;;;5021679;28;20380;-79
2021/07/06 07:03:51;;;;;;;2.70;1.33;;;21.90;92.50;;;;;;5016598;28;20041;-78
2021/07/06 07:06:17;;;;;;;2.95;0.90;;;21.90;93.10;;;;;;5026284;28;20025;-76
2021/07/06 07:08:43;;;;;;;2.05;0.98;;;22.20;92.40;;;;;;5030854;28;20407;-77
2021/07/06 07:11:09;;;;;;;2.30;1.05;;;22.40;91.70;;;;;;5027882;28;20034;-77
2021/07/06 07:13:36;;;;;;;3.38;1.30;;;22.10;92.20;;;;;;5017232;28;20048;-79
2021/07/06 07:16:03;;;;;;;1.88;0.90;;;22.50;92.20;;;;;;5048562;28;20041;-78
2021/07/06 07:18:29;;;;;;;1.45;0.88;;;23.00;91.70;;;;;;5039858;28;20041;-78
2021/07/06 07:20:55;;;;;;;4.72;1.30;;;23.20;91.40;;;;;;5037203;28;20045;-78
2021/07/06 07:23:22;;;;;;;3.67;0.90;;;23.40;91.20;;;;;;5025280;28;20029;-76
2021/07/06 07:25:48;;;;;;;1.52;0.98;;;23.20;91.30;;;;;;5034781;28;20045;-78
2021/07/06 07:28:14;;;;;;;2.25;0.88;;;22.80;91.70;;;;;;5022928;28;20046;-78
2021/07/06 07:30:40;;;;;;;5.07;1.20;;;22.40;92.20;;;;;;5030626;28;20061;-76
2021/07/06 07:33:07;;;;;;;2.65;1.13;;;22.20;93.00;;;;;;5021727;28;20034;-77
2021/07/06 07:35:33;;;;;;;3.10;1.48;;;22.10;93.10;;;;;;5029538;28;20447;-78
2021/07/06 07:37:59;;;;;;;3.28;1.20;;;22.10;93.70;;;;;;5027283;28;20386;-78
2021/07/06 07:40:25;;;;;;;2.33;1.35;;;22.30;93.30;;;;;;5035267;28;20034;-77
2021/07/06 07:42:52;;;;;;;5.35;1.40;;;22.30;93.40;;;;;;5022217;28;20041;-78
2021/07/06 07:45:19;;;;;;;7.82;1.90;;;22.20;93.80;;;;;;5023429;28;20059;-77
2021/07/06 07:47:45;;;;;;;2.92;1.50;;;22.10;93.20;;;;;;5034544;28;20035;-77
2021/07/06 07:50:13;;;;;;;7.18;1.70;;;22.10;94.30;;;;;;5030720;28;20030;-77
2021/07/06 07:52:39;;;;;;;4.78;2.08;;;22.00;94.60;;;;;;5015611;28;20033;-76
2021/07/06 07:55:07;;;;;;;3.10;1.30;;;21.90;94.70;;;;;;5029317;28;20045;-76
2021/07/06 07:57:33;;;;;;;4.43;1.67;;;21.90;94.90;;;;;;5014758;28;20064;-77
2021/07/06 08:00:00;;;;;;;5.25;1.80;;;21.80;95.10;;;;;;5022533;28;20046;-78
2021/07/06 08:02:26;;;;;;;7.35;1.92;;;21.60;95.40;;;;;;5027717;28;20046;-78
2021/07/06 08:04:52;;;;;;;4.15;1.52;;;21.40;95.90;;;;;;5015435;28;20038;-78
2021/07/06 08:07:19;;;;;;;4.93;1.50;;;21.40;96.20;;;;;;5014999;28;20075;-76
2021/07/06 08:09:45;;;;;;;3.72;1.67;;;21.30;96.60;;;;;;5026111;28;20033;-76
2021/07/06 08:12:12;;;;;;;2.13;1.35;;;21.20;96.70;;;;;;5033527;28;20410;-77
2021/07/06 08:14:38;;;;;;;4.28;1.50;;;21.20;97.10;;;;;;5026686;28;20029;-77
2021/07/06 08:17:04;;;;;;;5.80;1.85;;;21.10;97.10;;;;;;5025012;28;20049;-77
2021/07/06 08:19:31;;;;;;;4.13;2.13;;;21.10;97.40;;;;;;5021999;28;20041;-78
2021/07/06 08:21:57;;;;;;;4.00;2.00;;;21.00;97.50;;;;;;5033814;28;20038;-77
2021/07/06 08:24:23;;;;;;;6.18;2.20;;;20.90;97.20;;;;;;5022203;28;20030;-77
2021/07/06 08:26:50;;;;;;;7.47;2.95;;;20.80;97.80;;;;;;5031023;28;20056;-78
2021/07/06 08:29:17;;;;;;;4.18;2.30;;;20.70;98.60;;;;;;5015218;28;20069;-77
2021/07/06 08:31:43;;;;;;;3.85;2.47;;;20.50;98.80;;;;;;5016627;28;20037;-77
2021/07/06 08:34:09;;;;;;;5.53;3.17;;;20.30;99.40;;;;;;5021353;28;20025;-78
2021/07/06 08:36:35;;;;;;;4.53;2.50;;;20.20;99.90;;;;;;5029576;28;20052;-77
2021/07/06 08:39:03;;;;;;;4.80;2.53;;;20.10;99.90;;;;;;5022862;28;20060;-77
2021/07/06 08:41:30;;;;;;;8.45;2.92;;;19.90;99.90;;;;;;5035471;28;20040;-78
2021/07/06 08:43:56;;;;;;;6.28;2.53;;;19.80;99.90;;;;;;5035793;28;20025;-78
2021/07/06 08:46:23;;;;;;;6.18;2.75;;;19.50;99.90;;;;;;5022605;28;20038;-76
2021/07/06 08:48:50;;;;;;;5.43;2.70;;;19.40;99.90;;;;;;5026637;28;20033;-78
2021/07/06 08:51:20;;;;;;;4.35;2.40;;;19.30;99.90;;;;;;5026497;28;20057;-78
2021/07/06 08:53:47;;;;;;;7.65;2.40;;;19.20;99.90;;;;;;5027390;28;20068;-79
2021/07/06 08:56:14;;;;;;;4.00;2.17;;;19.00;99.90;;;;;;5016787;28;20368;-77
2021/07/06 08:58:40;;;;;;;4.22;2.47;;;18.90;99.90;;;;;;5025812;28;20034;-79
2021/07/06 09:01:06;;;;;;;5.13;2.30;;;18.80;99.90;;;;;;5014130;28;20045;-80
2021/07/06 09:03:54;;;;;;;5.10;2.80;;;18.80;99.90;;;;;;5015987;28;20034;-81
2021/07/06 09:06:28;;;;;;;8.52;3.80;;;18.70;99.90;;;;;;5026164;28;20050;-81
2021/07/06 09:09:18;;;;;;;6.68;3.33;;;18.70;99.90;;;;;;5034004;28;20041;-80
2021/07/06 09:11:52;;;;;;;7.35;3.15;;;18.60;99.90;;;;;;5017111;28;20056;-79
2021/07/06 09:14:31;;;;;;;5.78;3.22;;;18.50;99.90;;;;;;5018532;28;20033;-80
2021/07/06 09:17:12;;;;;;;5.72;3.35;;;18.50;99.90;;;;;;5034090;28;20387;-80
2021/07/06 09:19:40;;;;;;;;;;;18.50;99.90;;;;;;5015217;28;20490;-79
2021/07/06 09:22:20;;;;;;;5.10;2.60;;;18.50;99.90;;;;;;5015724;28;19936;-81
2021/07/06 09:25:06;;;;;;;6.65;3.15;;;18.40;99.90;;;;;;5030619;28;20038;-81
2021/07/06 09:27:40;;;;;;;7.00;2.90;;;18.40;99.90;;;;;;5019831;28;20383;-80
2021/07/06 09:30:18;;;;;;;4.05;1.95;;;18.40;99.90;;;;;;5015485;28;20034;-80
2021/07/06 09:32:56;;;;;;;3.15;2.53;;;18.30;99.90;;;;;;5031218;28;20038;-79
2021/07/06 09:35:28;;;;;;;4.75;2.90;;;18.40;99.90;;;;;;5015173;28;20478;-78
2021/07/06 09:38:05;;;;;;;4.32;2.75;;;18.40;99.90;;;;;;5014953;28;20037;-78
2021/07/06 09:40:32;;;;;;;4.15;2.65;;;18.40;99.90;;;;;;5021836;28;20029;-78
2021/07/06 09:43:20;;;;;;;7.63;2.83;;;18.50;99.90;;;;;;5032027;28;20045;-77
2021/07/06 09:46:09;;;;;;;5.63;2.90;;;18.50;99.90;;;;;;5014984;28;20037;-77
2021/07/06 09:48:43;;;;;;;3.63;2.17;;;18.60;99.90;;;;;;5015617;28;20034;-76
2021/07/06 09:51:17;;;;;;;4.60;1.95;;;18.60;99.90;;;;;;5033314;28;20048;-77
2021/07/06 09:53:51;;;;;;;3.75;2.15;;;18.60;99.90;;;;;;5019665;28;20034;-77
2021/07/06 09:56:22;;;;;;;6.07;3.00;;;18.60;99.90;;;;;;5016177;28;20057;-77
2021/07/06 09:59:03;;;;;;;3.60;2.60;;;18.70;99.90;;;;;;5034391;28;20045;-77
2021/07/06 10:01:30;;;;;;;5.25;2.90;;;18.80;99.90;;;;;;5034266;28;20057;-77
2021/07/06 10:03:58;;;;;;;8.68;3.60;;;18.90;99.90;;;;;;5034048;28;20094;-76
2021/07/06 10:06:29;;;;;;;3.10;2.65;;;19.00;99.90;;;;;;5030271;28;20022;-78
2021/07/06 10:08:56;;;;;;;6.22;3.03;;;19.10;99.90;;;;;;5015349;28;20030;-78
2021/07/06 10:11:23;;;;;;;5.00;2.55;;;19.30;99.90;;;;;;5023415;28;20034;-76
2021/07/06 10:13:50;;;;;;;5.28;1.85;;;19.40;99.90;;;;;;5019533;28;20033;-78
2021/07/06 10:16:18;;;;;;;2.50;1.15;;;19.40;99.90;;;;;;5044110;28;20052;-80
2021/07/06 10:18:44;;;;;;;4.38;1.40;;;19.50;99.90;;;;;;5040113;28;20038;-78
2021/07/06 10:21:11;;;;;;;3.08;1.85;;;19.50;99.90;;;;;;5025822;28;20030;-78
2021/07/06 10:23:41;;;;;;;2.08;1.25;;;19.60;99.90;;;;;;5014694;28;20053;-79
2021/07/06 10:26:10;;;;;;;2.15;1.55;;;19.70;99.90;;;;;;5012608;28;20468;-81
2021/07/06 10:28:37;;;;;;;1.83;1.02;;;19.60;99.90;;;;;;5017200;28;20038;-79
2021/07/06 10:31:17;;;;;;;3.50;1.10;;;19.60;99.90;;;;;;5023011;28;20030;-78
2021/07/06 10:33:45;;;;;;;2.13;0.90;;;19.60;99.90;;;;;;5032638;28;20463;-79
2021/07/06 10:36:12;;;;;;;1.88;0.98;;;19.60;99.90;;;;;;5032404;28;20033;-79
2021/07/06 10:38:56;;;;;;;2.85;0.90;;;19.70;99.90;;;;;;5032323;28;20030;-79
2021/07/06 10:41:35;;;;;;;2.63;0.95;;;19.70;99.90;;;;;;5032763;28;20042;-79
2021/07/06 10:44:03;;;;;;;3.35;1.00;;;19.80;99.90;;;;;;5031826;28;20041;-79
2021/07/06 10:46:49;;;;;;;2.20;0.88;;;19.90;99.90;;;;;;5032158;28;20044;-79
2021/07/06 10:49:37;;;;;;;4.25;1.17;;;19.80;99.90;;;;;;5019612;28;20038;-79
2021/07/06 10:52:05;;;;;;;3.25;1.15;;;20.00;99.90;;;;;;5017980;28;20030;-79
2021/07/06 10:54:33;;;;;;;4.60;1.08;;;20.10;99.90;;;;;;5030056;28;20053;-80
2021/07/06 10:57:23;;;;;;;5.47;1.08;;;19.90;99.90;;;;;;5023694;28;20476;-80
2021/07/06 10:59:54;;;;;;;3.15;1.42;;;19.90;99.90;;;;;;5019360;28;20046;-77
2021/07/06 11:02:26;;;;;;;2.75;1.15;;;19.80;99.90;;;;;;5026192;28;20042;-79
2021/07/06 11:04:55;;;;;;;1.40;0.90;;;19.70;99.90;;;;;;4995696;28;20046;-77
2021/07/06 11:07:30;;;;;;;3.60;1.10;;;19.60;99.90;;;;;;5026986;28;20033;-78
2021/07/06 11:09:56;;;;;;;3.42;1.10;;;19.70;99.90;;;;;;5034552;28;20052;-78
2021/07/06 11:12:24;;;;;;;2.30;1.20;;;19.60;99.90;;;;;;5037182;28;20429;-79
2021/07/06 11:14:54;;;;;;;2.45;1.15;;;19.60;99.90;;;;;;5038649;28;20037;-77
2021/07/06 11:17:59;;;;;;;5.40;1.25;;;19.40;99.90;;;;;;5032938;28;20037;-78
2021/07/06 11:20:47;;;;;;;2.55;2.00;;;19.30;99.90;;;;;;5018389;28;20050;-79
2021/07/06 11:23:33;;;;;;;3.25;1.10;;;19.40;99.90;;;;;;5026869;28;20034;-79
2021/07/06 11:26:04;;;;;;;5.50;1.45;;;19.40;99.90;;;;;;5020377;28;20366;-79
2021/07/06 11:28:31;;;;;;;1.98;1.13;;;19.40;99.90;;;;;;5032228;28;20037;-79
2021/07/06 11:31:01;;;;;;;3.42;1.30;;;19.50;99.90;;;;;;5031582;28;20037;-80
2021/07/06 11:33:31;;;;;;;3.33;1.45;;;19.40;99.90;;;;;;5035129;28;20038;-79
2021/07/06 11:36:16;;;;;;;2.50;1.52;;;19.50;99.90;;;;;;5020535;28;20471;-79
2021/07/06 11:38:45;;;;;;;1.95;1.17;;;19.50;99.90;;;;;;5016510;28;20036;-79
2021/07/06 11:41:13;;;;;;;2.25;1.45;;;19.50;99.90;;;;;;5029728;28;20034;-78
2021/07/06 11:43:41;;;;;;;1.98;1.20;;;19.40;99.90;;;;;;5015989;28;20033;-78
2021/07/06 11:46:12;;;;;;;1.98;1.23;;;19.40;99.90;;;;;;5015074;28;20042;-78
2021/07/06 11:48:43;;;;;;;3.60;1.45;;;19.50;99.90;;;;;;5015753;28;20056;-79
2021/07/06 11:51:16;;;;;;;2.88;1.25;;;19.50;99.90;;;;;;5014034;28;20045;-78
2021/07/06 11:53:45;;;;;;;1.83;1.10;;;19.40;99.90;;;;;;5034985;28;20354;-76
2021/07/06 11:56:12;;;;;;;6.05;1.65;;;19.40;99.90;;;;;;5034034;28;20076;-77
2021/07/06 11:58:39;;;;;;;5.50;1.80;;;19.40;99.90;;;;;;5034888;28;20037;-77
2021/07/06 12:01:11;;;;;;;4.50;1.70;;;19.40;99.90;;;;;;5016612;28;20033;-77
2021/07/06 12:03:39;;;;;;;3.53;1.17;;;19.30;99.90;;;;;;5035073;28;20070;-78
2021/07/06 12:06:09;;;;;;;3.10;1.40;;;19.30;99.90;;;;;;5025440;28;20029;-78
2021/07/06 12:08:37;;;;;;;3.58;1.73;;;19.20;99.90;;;;;;5034807;28;20041;-79
2021/07/06 12:11:11;;;;;;;7.80;2.92;;;19.10;99.90;;;;;;5035953;28;20061;-79
2021/07/06 12:13:45;;;;;;;5.32;1.85;;;18.90;99.90;;;;;;5018459;28;20133;-79
2021/07/06 12:16:17;;;;;;;3.95;2.42;;;18.80;99.90;;;;;;5017582;28;20041;-79
2021/07/06 12:18:49;;;;;;;6.07;2.15;;;18.70;99.90;;;;;;5018197;28;20046;-79
2021/07/06 12:21:23;;;;;;;2.55;1.63;;;18.70;99.90;;;;;;5018749;28;20041;-78
2021/07/06 12:23:49;;;;;;;4.75;2.08;;;18.60;99.90;;;;;;4999338;28;20052;-77
2021/07/06 12:26:16;;;;;;;3.10;1.83;;;18.70;99.90;;;;;;5036291;28;20029;-77
2021/07/06 12:28:43;;;;;;;3.40;2.45;;;18.70;99.90;;;;;;5021457;28;20033;-79
2021/07/06 12:31:43;;;;;;;3.72;2.00;;;18.70;99.90;;;;;;5029189;28;20117;-78
2021/07/06 12:34:17;;;;;;;4.25;2.65;;;18.80;99.90;;;;;;5000731;28;20255;-79
2021/07/06 12:36:55;;;;;;;3.22;1.50;;;18.70;99.90;;;;;;5030855;28;20041;-79
2021/07/06 12:39:41;;;;;;;5.72;1.92;;;18.70;99.90;;;;;;5020924;28;20053;-79
2021/07/06 12:42:18;;;;;;;5.82;2.38;;;18.80;99.90;;;;;;5035811;28;20113;-78
2021/07/06 12:44:50;;;;;;;5.68;2.33;;;18.90;99.90;;;;;;5013452;28;20395;-77
2021/07/06 12:47:42;;;;;;;3.45;2.47;;;18.90;99.90;;;;;;5032242;28;20030;-78
2021/07/06 12:50:17;;;;;;;4.93;2.05;;;19.00;99.90;;;;;;5033960;28;20049;-78
2021/07/06 12:52:48;;;;;;;3.97;2.42;;;19.20;99.90;;;;;;5035015;28;20029;-79
2021/07/06 12:55:15;;;;;;;3.75;2.08;;;19.30;99.90;;;;;;5015693;28;20049;-78
2021/07/06 12:57:47;;;;;;;3.80;1.92;;;19.40;99.90;;;;;;5034777;28;20040;-77